Pagrindinis puslapis
METAR-TAF:

METAR-TAF

Oro uostai :

Rabato oro uostas

Rabatas, Marokas

platuma: 34-03N, ilguma: 006-46W, Aukštis: 84 m

Dabartinis oras

Ataskaita buvo paskelbta 30 minutes, ne 15:00 UTC
Vėjas 10 kt iš Šiaurės, svyruoja nuo Vakarų/Šiaurės Vakarų ir Šiaurės/Šiaurės Rytų
Temperatūra 23°C
Drėgmė 50%
Slėgis 1019 hPa
Matomumas: 6000 m
Išsisklaidę debesys ne aukštis 1600 ft

METAR: GMME 201500Z 36010KT 300V030 6000 SCT016 23/12 Q1019 NOSIG

Laikas: 16:30 (15:30 UTC)

Prognozė

Ataskaita buvo paskelbta 4 valandos ir 30 minutes, ne 11:00 UTC
Prognozė galioja nuo 20 metu 12 UTC su 21 metu 18 UTC
Vėjas 12 kt iš Šiaurės
Matomumas: 6000 m
Išsisklaidę debesys ne aukštis 1600 ft
Išsisklaidę debesys ne aukštis 2000 ft
Laikinai
nuo 20 metu 12 UTC su 20 metu 18 UTC
Vėjas 14 kt iš Šiaurės su gūsio iki 24 kt
Matomumas: 8000 m
Laikinai
nuo 20 metu 18 UTC su 20 metu 24 UTC
Vėjas 6 kt iš Šiaurės/Šiaurės Rytų

TAF: GMME 201100Z 2012/2118 36012KT 6000 SCT016 SCT020 TEMPO 2012/2018 35014G24KT 8000 NSC TEMPO 2018/2024 02006KT

Orai ataskaitas ir orų prognozės (METAR, TAF).

turimą stotys yra geltonos ir raudonos taškus žemėlapyje.

Perkelti pele per norėdami pamatyti stoties vardą.

Tada spustelėkite, norėdami matyti oro stebėjimo ir prognozės.

Norėdami pakeisti žemėlapį: spustelėkite ant žalios mygtukų su juodo kryžiaus žemyn,; žalią mygtuką su brūkšneliu, jei norite nutolinti; arba žalių rodyklių gretimoms žemėlapius.


METAR-TAF: